Historyczne dane pomiarowe

Dodano dane terminowe – wersja testowa.

Dane z okresu 1951-2019

Wersja bazy: 1.34 [2019-03-16, lista zmian], aktualizacja planowana na 2019-04-15

Dane meteo z obszaru Polski uzyskane na podstawie danych udostępnionych przez Instytut Meteorologii i Gospodarki Wodnej – Państwowy Instytut Badawczy.

 

Wybierz Datę:    

       

TemperaturaWilgotnośćWiatrCiśnienieOpadyŚniegCzas trwania zjawisk
 Stacja t tx tn tng RH VA  wxwx mslp ppp RRR   cm mm wxwxwxwxwxwxwx
1994-09-11 5.2 6.9 3.2- 78.5 6.9 4.5 9.8 14.5 0.0- 801.1 0.2 0.2 0.0- 0.0 3.6 0.2--- 3.0--
1994-09-12 7.4 9.1 4.9- 89.0 9.2 4.8 11.1 16.2 0.0- 803.1 0.0 0.0 0.0- 0.0 2.1--- 3.8---
1994-09-13 9.0 10.9 7.6- 92.9 10.7 5.5 9.1 6.7 0.0- 802.7 0.0 0.0 0.0- 0.0 2.7 0.3-- 4.0---
1994-09-14 10.9 13.3 8.7- 80.9 10.5 6.1 11.4 19.5 3.2- 798.1 4.8 0.0 4.8- 0.0 3.2 0.4-- 2.5---
1994-09-15 6.2 13.8 4.1- 89.3 8.6 7.1 15.9 22.3 12.7- 791.5 5.2 4.7 0.5- 0.0 1.1 7.4-- 10.8---
1994-09-16 2.9 5.4 1.2- 83.1 6.2 5.3 8.1 6.8 0.0- 793.5 2.1 0.3 1.8- 0.0 9.3 3.3-- 8.1---
1994-09-17 2.0 2.9 0.6-100.0 7.1 8.0 5.9 5.8 0.0- 795.6 22.1 21.1 1.0- 0.0 0.0 12.1 0.8- 24.0---
1994-09-18 -0.2 1.3 -2.6- 99.6 6.0 7.5 3.4 0.0 0.0- 799.5 0.0 0.0 0.0- 0.0 0.5--- 19.2---
1994-09-19 2.6 6.5 -0.8- 91.4 6.7 5.1 2.6 0.0 0.0- 800.7 1.7 0.0 1.7- 0.0 6.3--- 13.2- 4.5-
1994-09-20 4.0 6.4 1.6- 99.0 8.1 7.5 3.1 0.0 0.0- 793.1 3.3 2.0 1.3- 0.0 0.0 8.7-- 20.0---
1994-09-21 3.4 5.4 2.8- 99.0 7.7 7.9 2.6 0.0 0.0- 793.8 4.4 4.1 0.3- 0.0 0.0 10.8-- 24.0---
1994-09-22 3.8 6.2 0.6- 97.0 7.8 6.6 7.5 4.6 0.0- 803.7 0.0 0.0 0.0- 0.0 0.0--- 18.1---
1994-09-23 8.2 10.9 4.4- 53.0 5.8 2.3 4.1 0.0 0.0- 809.1 0.0 0.0 0.0- 0.0 11.1-------
1994-09-24 10.0 13.8 7.1- 59.1 7.1 2.5 5.1 0.8 0.0- 807.0 0.2 0.0 0.2- 0.0 11.1 0.3-- 6.2---
1994-09-25 9.8 13.9 7.0- 98.8 12.0 6.4 4.1 0.0 0.0- 804.9 0.0 0.0 0.0- 0.0 3.3--- 19.6---
1994-09-26 9.9 12.4 8.4- 96.0 11.7 7.3 3.0 0.0 0.0- 804.0 0.0 0.0 0.0- 0.0 3.4--- 18.0---
1994-09-27 7.3 10.1 4.9- 96.1 9.9 7.0 5.9 3.7 0.0- 800.3 9.0 8.6 0.4- 0.0 0.0 10.7-- 17.0---
1994-09-28 4.0 6.9 2.8- 85.3 6.9 4.3 3.9 0.0 0.0- 803.7 0.0 0.0 0.0- 0.0 5.7--- 2.0---
1994-09-29 5.5 8.3 1.6- 66.6 6.0 0.9 4.5 0.0 0.0- 805.8 0.0 0.0 0.0- 0.0 10.5-------
1994-09-30 6.0 10.1 2.4- 77.4 7.3 2.0 4.0 0.0 0.0- 806.1 0.0 0.0 0.0- 0.0 8.5--- 1.8---
1994-10-01 5.6 8.8 4.8- 93.8 8.5 6.4 8.6 7.3 0.0- 803.2 0.3 0.2 0.1- 0.0 2.7 0.5-- 13.3---
1994-10-02 5.2 7.7 1.7- 88.4 7.8 6.8 6.9 5.5 0.0- 802.2 1.4 1.0 0.4- 0.0 4.0 5.4-- 13.8---
1994-10-03 6.2 7.3 5.7- 99.5 9.4 8.0 11.4 19.0 2.0- 793.1 20.1 15.8 4.3- 0.0 0.0 13.6-- 24.0---
1994-10-04 -0.8 5.8 -5.3- 98.4 5.9 7.6 3.9 0.0 0.0- 791.4 2.1 2.1 0.0- 0.0 0.9 4.1 0.1 0.6 23.2---
1994-10-05 -6.4 -3.4 -8.6- 91.9 3.5 6.1 2.8 0.0 0.0- 799.3 0.8 0.4 0.4- 0.0 4.6- 2.0- 7.9---
1994-10-06 -7.7 -5.6 -8.9- 92.8 3.2 7.5 3.1 0.0 0.0- 804.4 12.3 9.1 3.2 1 0.0 0.0- 19.3- 23.7---
1994-10-07 -6.2 -3.7 -9.1- 93.9 3.6 7.8 7.0 3.9 0.0- 800.2 7.4 6.9 0.5 5- 0.0- 17.4- 24.0---
1994-10-08 -4.3 -1.5 -8.0- 82.9 3.7 4.3 4.4 0.0 0.0- 800.8 0.6 0.2 0.4 9- 5.1- 2.1- 1.8---
1994-10-09 -4.8 -1.1 -6.9- 88.8 3.8 5.5 3.5 0.0 0.0- 798.8 9.3 9.3 0.0 10- 0.0- 10.9- 15.8---
1994-10-10 -5.6 -4.5 -8.0- 79.9 3.2 4.5 2.5 0.0 0.0- 802.8 0.0 0.0 0.0 15 2.2 3.8--- 4.2---
308.5 ms

 

Źródłem pochodzenia danych jest Instytut Meteorologii i Gospodarki Wodnej – Państwowy Instytut Badawczy. Dane Instytutu Meteorologii i Gospodarki Wodnej – Państwowego Instytutu Badawczego zostały przetworzone.

Dane źródłowe można odnaleźć na stronie https://dane.imgw.pl